Terminal Aerodrome Forecast
Issued by NWS Birmingham, AL

Home | Current Version | Previous Version | Text Only | Print | Product List | Glossary On
Versions: 1 2 3 4 5 6 7 8 9 10 11 12 13 14 15 16 17 18 19 20
223
FTUS44 KBMX 051121
TAFBHM
TAF
KBHM 051121Z 0512/0612 34007KT P6SM SKC
     FM051500 31018G24KT P6SM SKC
      TEMPO 0518/0521 32021G30KT SCT050
     FM060100 34010KT P6SM SKC
     FM060600 33005KT P6SM SKC=

USA.gov is the U.S. government's official web portal to all federal, state and local government web resources and services.